sensor_id;sensor_type;location;lat;lon;timestamp;temperature;humidity
19359;DHT22;9815;52.334;20.890;2023-03-03T00:01:04;-2.20;99.90
19359;DHT22;9815;52.334;20.890;2023-03-03T00:03:33;-2.20;99.90
19359;DHT22;9815;52.334;20.890;2023-03-03T00:06:02;-2.20;99.90
19359;DHT22;9815;52.334;20.890;2023-03-03T00:08:31;-2.20;99.90
19359;DHT22;9815;52.334;20.890;2023-03-03T00:10:59;-2.20;99.90
19359;DHT22;9815;52.334;20.890;2023-03-03T00:13:30;-2.20;99.90
19359;DHT22;9815;52.334;20.890;2023-03-03T00:16:16;-2.20;99.90
19359;DHT22;9815;52.334;20.890;2023-03-03T00:18:48;-2.20;99.90
19359;DHT22;9815;52.334;20.890;2023-03-03T00:21:26;-2.20;99.90
19359;DHT22;9815;52.334;20.890;2023-03-03T00:26:48;-2.10;99.90
19359;DHT22;9815;52.334;20.890;2023-03-03T00:29:35;-2.20;99.90
19359;DHT22;9815;52.334;20.890;2023-03-03T00:32:24;-2.10;99.90
19359;DHT22;9815;52.334;20.890;2023-03-03T00:34:54;-2.10;99.90
19359;DHT22;9815;52.334;20.890;2023-03-03T00:37:28;-2.10;99.90
19359;DHT22;9815;52.334;20.890;2023-03-03T00:40:10;-2.10;99.90
19359;DHT22;9815;52.334;20.890;2023-03-03T00:42:40;-2.20;99.90
19359;DHT22;9815;52.334;20.890;2023-03-03T00:45:23;-2.10;99.90
19359;DHT22;9815;52.334;20.890;2023-03-03T00:47:54;-2.10;99.90
19359;DHT22;9815;52.334;20.890;2023-03-03T00:50:31;-2.20;99.90
19359;DHT22;9815;52.334;20.890;2023-03-03T00:53:05;-2.20;99.90
19359;DHT22;9815;52.334;20.890;2023-03-03T00:55:34;-2.20;99.90
19359;DHT22;9815;52.334;20.890;2023-03-03T00:58:03;-2.20;99.90
19359;DHT22;9815;52.334;20.890;2023-03-03T01:00:36;-2.20;99.90
19359;DHT22;9815;52.334;20.890;2023-03-03T01:03:09;-2.20;99.90
19359;DHT22;9815;52.334;20.890;2023-03-03T01:05:39;-2.20;99.90
19359;DHT22;9815;52.334;20.890;2023-03-03T01:08:08;-2.30;99.90
19359;DHT22;9815;52.334;20.890;2023-03-03T01:10:40;-2.20;99.90
19359;DHT22;9815;52.334;20.890;2023-03-03T01:13:09;-2.20;99.90
19359;DHT22;9815;52.334;20.890;2023-03-03T01:15:38;-2.20;99.90
19359;DHT22;9815;52.334;20.890;2023-03-03T01:18:08;-2.20;99.90
19359;DHT22;9815;52.334;20.890;2023-03-03T01:20:37;-2.20;99.90
19359;DHT22;9815;52.334;20.890;2023-03-03T01:23:05;-2.40;99.90
19359;DHT22;9815;52.334;20.890;2023-03-03T01:25:33;-2.30;99.90
19359;DHT22;9815;52.334;20.890;2023-03-03T01:28:02;-2.30;99.90
19359;DHT22;9815;52.334;20.890;2023-03-03T01:30:31;-2.30;99.90
19359;DHT22;9815;52.334;20.890;2023-03-03T01:32:59;-2.30;99.90
19359;DHT22;9815;52.334;20.890;2023-03-03T01:35:28;-2.30;99.90
19359;DHT22;9815;52.334;20.890;2023-03-03T01:37:57;-2.20;99.90
19359;DHT22;9815;52.334;20.890;2023-03-03T01:40:27;-2.30;99.90
19359;DHT22;9815;52.334;20.890;2023-03-03T01:42:57;-2.30;99.90
19359;DHT22;9815;52.334;20.890;2023-03-03T01:45:27;-2.30;99.90
19359;DHT22;9815;52.334;20.890;2023-03-03T01:47:59;-2.30;99.90
19359;DHT22;9815;52.334;20.890;2023-03-03T01:50:40;-2.40;99.90
19359;DHT22;9815;52.334;20.890;2023-03-03T01:53:13;-2.40;99.90
19359;DHT22;9815;52.334;20.890;2023-03-03T01:55:43;-2.40;99.90
19359;DHT22;9815;52.334;20.890;2023-03-03T01:58:16;-2.40;99.90
19359;DHT22;9815;52.334;20.890;2023-03-03T02:00:48;-2.40;99.90
19359;DHT22;9815;52.334;20.890;2023-03-03T02:03:19;-2.40;99.90
19359;DHT22;9815;52.334;20.890;2023-03-03T02:05:49;-2.40;99.90
19359;DHT22;9815;52.334;20.890;2023-03-03T02:08:22;-2.40;99.90
19359;DHT22;9815;52.334;20.890;2023-03-03T02:10:53;-2.50;99.90
19359;DHT22;9815;52.334;20.890;2023-03-03T02:13:24;-2.50;99.90
19359;DHT22;9815;52.334;20.890;2023-03-03T02:15:54;-2.50;99.90
19359;DHT22;9815;52.334;20.890;2023-03-03T02:18:22;-2.50;99.90
19359;DHT22;9815;52.334;20.890;2023-03-03T02:20:56;-2.50;99.90
19359;DHT22;9815;52.334;20.890;2023-03-03T02:23:29;-2.50;99.90
19359;DHT22;9815;52.334;20.890;2023-03-03T02:26:11;-2.50;99.90
19359;DHT22;9815;52.334;20.890;2023-03-03T02:28:40;-2.60;99.90
19359;DHT22;9815;52.334;20.890;2023-03-03T02:31:12;-2.60;99.90
19359;DHT22;9815;52.334;20.890;2023-03-03T02:33:44;-2.60;99.90
19359;DHT22;9815;52.334;20.890;2023-03-03T02:36:14;-2.60;99.90
19359;DHT22;9815;52.334;20.890;2023-03-03T02:38:47;-2.60;99.90
19359;DHT22;9815;52.334;20.890;2023-03-03T02:41:25;-2.60;99.90
19359;DHT22;9815;52.334;20.890;2023-03-03T02:43:59;-2.60;99.90
19359;DHT22;9815;52.334;20.890;2023-03-03T02:46:32;-2.60;99.90
19359;DHT22;9815;52.334;20.890;2023-03-03T02:49:01;-2.70;99.90
19359;DHT22;9815;52.334;20.890;2023-03-03T02:51:29;-2.70;99.90
19359;DHT22;9815;52.334;20.890;2023-03-03T02:53:57;-2.70;99.90
19359;DHT22;9815;52.334;20.890;2023-03-03T02:56:29;-2.60;99.90
19359;DHT22;9815;52.334;20.890;2023-03-03T02:58:57;-2.60;99.90
19359;DHT22;9815;52.334;20.890;2023-03-03T03:01:27;-2.60;99.90
19359;DHT22;9815;52.334;20.890;2023-03-03T03:03:57;-2.60;99.90
19359;DHT22;9815;52.334;20.890;2023-03-03T03:06:26;-2.60;99.90
19359;DHT22;9815;52.334;20.890;2023-03-03T03:08:55;-2.60;99.90
19359;DHT22;9815;52.334;20.890;2023-03-03T03:11:23;-2.60;99.90
19359;DHT22;9815;52.334;20.890;2023-03-03T03:13:52;-2.50;99.90
19359;DHT22;9815;52.334;20.890;2023-03-03T03:16:21;-2.50;99.90
19359;DHT22;9815;52.334;20.890;2023-03-03T03:18:49;-2.50;99.90
19359;DHT22;9815;52.334;20.890;2023-03-03T03:21:18;-2.50;99.90
19359;DHT22;9815;52.334;20.890;2023-03-03T03:23:46;-2.50;99.90
19359;DHT22;9815;52.334;20.890;2023-03-03T03:26:14;-2.50;99.90
19359;DHT22;9815;52.334;20.890;2023-03-03T03:28:43;-2.50;99.90
19359;DHT22;9815;52.334;20.890;2023-03-03T03:31:12;-2.50;99.90
19359;DHT22;9815;52.334;20.890;2023-03-03T03:33:41;-2.50;99.90
19359;DHT22;9815;52.334;20.890;2023-03-03T03:36:10;-2.50;99.90
19359;DHT22;9815;52.334;20.890;2023-03-03T03:38:40;-2.50;99.90
19359;DHT22;9815;52.334;20.890;2023-03-03T03:41:09;-2.40;99.90
19359;DHT22;9815;52.334;20.890;2023-03-03T03:43:37;-2.40;99.90
19359;DHT22;9815;52.334;20.890;2023-03-03T03:46:06;-2.50;99.90
19359;DHT22;9815;52.334;20.890;2023-03-03T03:48:36;-2.40;99.90
19359;DHT22;9815;52.334;20.890;2023-03-03T03:51:05;-2.40;99.90
19359;DHT22;9815;52.334;20.890;2023-03-03T03:53:33;-2.40;99.90
19359;DHT22;9815;52.334;20.890;2023-03-03T03:56:01;-2.40;99.90
19359;DHT22;9815;52.334;20.890;2023-03-03T03:58:30;-2.50;99.90
19359;DHT22;9815;52.334;20.890;2023-03-03T04:01:03;-2.40;99.90
19359;DHT22;9815;52.334;20.890;2023-03-03T04:03:34;-2.40;99.90
19359;DHT22;9815;52.334;20.890;2023-03-03T04:06:06;-2.40;99.90
19359;DHT22;9815;52.334;20.890;2023-03-03T04:08:34;-2.40;99.90
19359;DHT22;9815;52.334;20.890;2023-03-03T04:11:03;-2.40;99.90
19359;DHT22;9815;52.334;20.890;2023-03-03T04:13:31;-2.50;99.90
19359;DHT22;9815;52.334;20.890;2023-03-03T04:16:03;-2.40;99.90
19359;DHT22;9815;52.334;20.890;2023-03-03T04:18:32;-2.50;99.90
19359;DHT22;9815;52.334;20.890;2023-03-03T04:21:00;-2.50;99.90
19359;DHT22;9815;52.334;20.890;2023-03-03T04:23:29;-2.50;99.90
19359;DHT22;9815;52.334;20.890;2023-03-03T04:25:59;-2.50;99.90
19359;DHT22;9815;52.334;20.890;2023-03-03T04:28:27;-2.40;99.90
19359;DHT22;9815;52.334;20.890;2023-03-03T04:30:55;-2.40;99.90
19359;DHT22;9815;52.334;20.890;2023-03-03T04:33:25;-2.40;99.90
19359;DHT22;9815;52.334;20.890;2023-03-03T04:35:53;-2.40;99.90
19359;DHT22;9815;52.334;20.890;2023-03-03T04:38:22;-2.40;99.90
19359;DHT22;9815;52.334;20.890;2023-03-03T04:40:52;-2.40;99.90
19359;DHT22;9815;52.334;20.890;2023-03-03T04:43:21;-2.40;99.90
19359;DHT22;9815;52.334;20.890;2023-03-03T04:45:50;-2.50;99.90
19359;DHT22;9815;52.334;20.890;2023-03-03T04:48:19;-2.50;99.90
19359;DHT22;9815;52.334;20.890;2023-03-03T04:50:47;-2.50;99.90
19359;DHT22;9815;52.334;20.890;2023-03-03T04:53:15;-2.50;99.90
19359;DHT22;9815;52.334;20.890;2023-03-03T04:55:43;-2.50;99.90
19359;DHT22;9815;52.334;20.890;2023-03-03T04:58:13;-2.50;99.90
19359;DHT22;9815;52.334;20.890;2023-03-03T05:00:42;-2.50;99.90
19359;DHT22;9815;52.334;20.890;2023-03-03T05:03:11;-2.50;99.90
19359;DHT22;9815;52.334;20.890;2023-03-03T05:05:41;-2.50;99.90
19359;DHT22;9815;52.334;20.890;2023-03-03T05:08:09;-2.50;99.90
19359;DHT22;9815;52.334;20.890;2023-03-03T05:10:37;-2.50;99.90
19359;DHT22;9815;52.334;20.890;2023-03-03T05:13:05;-2.40;99.90
19359;DHT22;9815;52.334;20.890;2023-03-03T05:15:35;-2.40;99.90
19359;DHT22;9815;52.334;20.890;2023-03-03T05:18:03;-2.40;99.90
19359;DHT22;9815;52.334;20.890;2023-03-03T05:20:31;-2.40;99.90
19359;DHT22;9815;52.334;20.890;2023-03-03T05:22:59;-2.40;99.90
19359;DHT22;9815;52.334;20.890;2023-03-03T05:25:27;-2.40;99.90
19359;DHT22;9815;52.334;20.890;2023-03-03T05:27:55;-2.50;99.90
19359;DHT22;9815;52.334;20.890;2023-03-03T05:30:23;-2.50;99.90
19359;DHT22;9815;52.334;20.890;2023-03-03T05:32:53;-2.40;99.90
19359;DHT22;9815;52.334;20.890;2023-03-03T05:35:21;-2.40;99.90
19359;DHT22;9815;52.334;20.890;2023-03-03T05:37:49;-2.30;99.90
19359;DHT22;9815;52.334;20.890;2023-03-03T05:40:18;-2.30;99.90
19359;DHT22;9815;52.334;20.890;2023-03-03T05:42:46;-2.20;99.90
19359;DHT22;9815;52.334;20.890;2023-03-03T05:45:14;-2.20;99.90
19359;DHT22;9815;52.334;20.890;2023-03-03T05:47:42;-2.10;99.90
19359;DHT22;9815;52.334;20.890;2023-03-03T05:50:11;-2.00;99.90
19359;DHT22;9815;52.334;20.890;2023-03-03T05:52:40;-2.00;99.90
19359;DHT22;9815;52.334;20.890;2023-03-03T05:55:09;-1.90;99.90
19359;DHT22;9815;52.334;20.890;2023-03-03T05:57:37;-1.90;99.90
19359;DHT22;9815;52.334;20.890;2023-03-03T06:00:06;-1.80;99.90
19359;DHT22;9815;52.334;20.890;2023-03-03T06:02:41;-1.80;99.90
19359;DHT22;9815;52.334;20.890;2023-03-03T06:05:11;-1.70;99.90
19359;DHT22;9815;52.334;20.890;2023-03-03T06:07:39;-1.60;99.90
19359;DHT22;9815;52.334;20.890;2023-03-03T06:10:08;-1.60;99.90
19359;DHT22;9815;52.334;20.890;2023-03-03T06:12:38;-1.50;99.90
19359;DHT22;9815;52.334;20.890;2023-03-03T06:15:08;-1.50;99.90
19359;DHT22;9815;52.334;20.890;2023-03-03T06:17:36;-1.40;99.90
19359;DHT22;9815;52.334;20.890;2023-03-03T06:20:05;-1.30;99.90
19359;DHT22;9815;52.334;20.890;2023-03-03T06:22:35;-1.30;99.90
19359;DHT22;9815;52.334;20.890;2023-03-03T06:25:03;-1.30;99.90
19359;DHT22;9815;52.334;20.890;2023-03-03T06:27:31;-1.20;99.90
19359;DHT22;9815;52.334;20.890;2023-03-03T06:30:00;-1.20;99.90
19359;DHT22;9815;52.334;20.890;2023-03-03T06:32:28;-1.20;99.90
19359;DHT22;9815;52.334;20.890;2023-03-03T06:34:56;-1.10;99.90
19359;DHT22;9815;52.334;20.890;2023-03-03T06:37:24;-1.20;99.90
19359;DHT22;9815;52.334;20.890;2023-03-03T06:39:54;-1.20;99.90
19359;DHT22;9815;52.334;20.890;2023-03-03T06:42:22;-1.10;99.90
19359;DHT22;9815;52.334;20.890;2023-03-03T06:44:50;-1.20;99.90
19359;DHT22;9815;52.334;20.890;2023-03-03T06:47:18;-1.20;99.90
19359;DHT22;9815;52.334;20.890;2023-03-03T06:49:46;-1.10;99.90
19359;DHT22;9815;52.334;20.890;2023-03-03T06:52:18;-1.10;99.90
19359;DHT22;9815;52.334;20.890;2023-03-03T06:54:47;-1.00;99.90
19359;DHT22;9815;52.334;20.890;2023-03-03T06:57:22;-1.00;99.90
19359;DHT22;9815;52.334;20.890;2023-03-03T06:59:53;-0.90;99.90
19359;DHT22;9815;52.334;20.890;2023-03-03T07:02:22;-0.70;99.90
19359;DHT22;9815;52.334;20.890;2023-03-03T07:04:52;-0.70;99.90
19359;DHT22;9815;52.334;20.890;2023-03-03T07:07:23;-0.60;99.90
19359;DHT22;9815;52.334;20.890;2023-03-03T07:09:53;-0.60;99.90
19359;DHT22;9815;52.334;20.890;2023-03-03T07:12:25;-0.60;99.90
19359;DHT22;9815;52.334;20.890;2023-03-03T07:14:57;-0.60;99.90
19359;DHT22;9815;52.334;20.890;2023-03-03T07:17:26;-0.60;99.90
19359;DHT22;9815;52.334;20.890;2023-03-03T07:19:54;-0.60;99.90
19359;DHT22;9815;52.334;20.890;2023-03-03T07:22:24;-0.60;99.90
19359;DHT22;9815;52.334;20.890;2023-03-03T07:24:58;-0.60;99.90
19359;DHT22;9815;52.334;20.890;2023-03-03T07:27:30;-0.60;99.90
19359;DHT22;9815;52.334;20.890;2023-03-03T07:30:16;-0.50;99.90
19359;DHT22;9815;52.334;20.890;2023-03-03T07:32:47;-0.40;99.90
19359;DHT22;9815;52.334;20.890;2023-03-03T07:35:35;-0.30;99.90
19359;DHT22;9815;52.334;20.890;2023-03-03T07:38:16;-0.20;99.90
19359;DHT22;9815;52.334;20.890;2023-03-03T07:40:48;-0.20;99.90
19359;DHT22;9815;52.334;20.890;2023-03-03T07:43:33;-0.10;99.90
19359;DHT22;9815;52.334;20.890;2023-03-03T07:46:15;-0.10;99.90
19359;DHT22;9815;52.334;20.890;2023-03-03T07:48:49;-0.10;99.90
19359;DHT22;9815;52.334;20.890;2023-03-03T07:51:21;-0.10;99.90
19359;DHT22;9815;52.334;20.890;2023-03-03T07:53:53;0.00;99.90
19359;DHT22;9815;52.334;20.890;2023-03-03T07:56:27;0.00;99.90
19359;DHT22;9815;52.334;20.890;2023-03-03T07:58:57;0.00;99.90
19359;DHT22;9815;52.334;20.890;2023-03-03T08:01:38;0.10;99.90
19359;DHT22;9815;52.334;20.890;2023-03-03T08:04:16;0.10;99.90
19359;DHT22;9815;52.334;20.890;2023-03-03T08:06:51;0.20;99.90
19359;DHT22;9815;52.334;20.890;2023-03-03T08:09:46;0.30;99.90
19359;DHT22;9815;52.334;20.890;2023-03-03T08:12:37;0.30;99.90
19359;DHT22;9815;52.334;20.890;2023-03-03T08:15:23;0.40;99.90
19359;DHT22;9815;52.334;20.890;2023-03-03T08:17:53;0.40;99.90
19359;DHT22;9815;52.334;20.890;2023-03-03T08:20:41;0.50;99.90
19359;DHT22;9815;52.334;20.890;2023-03-03T08:23:10;0.50;99.90
19359;DHT22;9815;52.334;20.890;2023-03-03T08:25:39;0.50;99.90
19359;DHT22;9815;52.334;20.890;2023-03-03T08:28:08;0.60;99.90
19359;DHT22;9815;52.334;20.890;2023-03-03T08:30:37;0.60;99.90
19359;DHT22;9815;52.334;20.890;2023-03-03T08:33:05;0.60;99.90
19359;DHT22;9815;52.334;20.890;2023-03-03T08:35:33;0.50;99.90
19359;DHT22;9815;52.334;20.890;2023-03-03T08:38:02;0.40;99.90
19359;DHT22;9815;52.334;20.890;2023-03-03T08:40:31;0.40;99.90
19359;DHT22;9815;52.334;20.890;2023-03-03T08:42:59;0.40;99.90
19359;DHT22;9815;52.334;20.890;2023-03-03T08:45:27;0.40;99.90
19359;DHT22;9815;52.334;20.890;2023-03-03T08:47:57;0.40;99.90
19359;DHT22;9815;52.334;20.890;2023-03-03T08:50:26;0.40;99.90
19359;DHT22;9815;52.334;20.890;2023-03-03T08:52:54;0.40;99.90
19359;DHT22;9815;52.334;20.890;2023-03-03T08:55:22;0.40;99.90
19359;DHT22;9815;52.334;20.890;2023-03-03T08:57:50;0.50;99.90
19359;DHT22;9815;52.334;20.890;2023-03-03T09:00:20;0.50;99.90
19359;DHT22;9815;52.334;20.890;2023-03-03T09:02:49;0.60;99.90
19359;DHT22;9815;52.334;20.890;2023-03-03T09:05:20;0.50;99.90
19359;DHT22;9815;52.334;20.890;2023-03-03T09:07:48;0.50;99.90
19359;DHT22;9815;52.334;20.890;2023-03-03T09:10:20;0.50;99.90
19359;DHT22;9815;52.334;20.890;2023-03-03T09:12:54;0.60;99.90
19359;DHT22;9815;52.334;20.890;2023-03-03T09:15:25;0.60;99.90
19359;DHT22;9815;52.334;20.890;2023-03-03T09:17:57;0.60;99.90
19359;DHT22;9815;52.334;20.890;2023-03-03T09:20:34;0.60;99.90
19359;DHT22;9815;52.334;20.890;2023-03-03T09:23:32;0.60;99.90
19359;DHT22;9815;52.334;20.890;2023-03-03T09:26:28;0.60;99.90
19359;DHT22;9815;52.334;20.890;2023-03-03T09:29:08;0.60;99.90
19359;DHT22;9815;52.334;20.890;2023-03-03T09:31:41;0.60;99.90
19359;DHT22;9815;52.334;20.890;2023-03-03T09:34:21;0.60;99.90
19359;DHT22;9815;52.334;20.890;2023-03-03T09:36:52;0.60;99.90
19359;DHT22;9815;52.334;20.890;2023-03-03T09:39:22;0.50;99.90
19359;DHT22;9815;52.334;20.890;2023-03-03T09:42:17;0.50;99.90
19359;DHT22;9815;52.334;20.890;2023-03-03T09:47:46;0.40;99.90
19359;DHT22;9815;52.334;20.890;2023-03-03T09:50:27;0.40;99.90
19359;DHT22;9815;52.334;20.890;2023-03-03T09:53:07;0.40;99.90
19359;DHT22;9815;52.334;20.890;2023-03-03T09:55:47;0.40;99.90
19359;DHT22;9815;52.334;20.890;2023-03-03T10:01:53;0.50;99.90
19359;DHT22;9815;52.334;20.890;2023-03-03T10:04:36;0.60;99.90
19359;DHT22;9815;52.334;20.890;2023-03-03T10:07:16;0.70;99.90
19359;DHT22;9815;52.334;20.890;2023-03-03T10:10:15;0.60;99.90
19359;DHT22;9815;52.334;20.890;2023-03-03T10:12:53;0.60;99.90
19359;DHT22;9815;52.334;20.890;2023-03-03T10:15:31;0.70;99.90
19359;DHT22;9815;52.334;20.890;2023-03-03T10:18:12;0.60;99.90
19359;DHT22;9815;52.334;20.890;2023-03-03T10:20:55;0.50;99.90
19359;DHT22;9815;52.334;20.890;2023-03-03T10:23:39;0.50;99.90
19359;DHT22;9815;52.334;20.890;2023-03-03T10:26:18;0.50;99.90
19359;DHT22;9815;52.334;20.890;2023-03-03T10:29:19;0.50;99.90
19359;DHT22;9815;52.334;20.890;2023-03-03T10:31:58;0.50;99.90
19359;DHT22;9815;52.334;20.890;2023-03-03T10:34:46;0.40;99.90
19359;DHT22;9815;52.334;20.890;2023-03-03T10:37:22;0.40;99.90
19359;DHT22;9815;52.334;20.890;2023-03-03T10:40:02;0.60;99.90
19359;DHT22;9815;52.334;20.890;2023-03-03T10:43:01;0.50;99.90
19359;DHT22;9815;52.334;20.890;2023-03-03T10:45:44;0.50;99.90
19359;DHT22;9815;52.334;20.890;2023-03-03T10:48:27;0.50;99.90
19359;DHT22;9815;52.334;20.890;2023-03-03T10:51:03;0.40;99.90
19359;DHT22;9815;52.334;20.890;2023-03-03T10:53:41;0.40;99.90
19359;DHT22;9815;52.334;20.890;2023-03-03T10:56:25;0.40;99.90
19359;DHT22;9815;52.334;20.890;2023-03-03T10:59:06;0.40;99.90
19359;DHT22;9815;52.334;20.890;2023-03-03T11:01:44;0.40;99.90
19359;DHT22;9815;52.334;20.890;2023-03-03T11:04:34;0.40;99.90
19359;DHT22;9815;52.334;20.890;2023-03-03T11:07:11;0.40;99.90
19359;DHT22;9815;52.334;20.890;2023-03-03T11:09:51;0.40;99.90
19359;DHT22;9815;52.334;20.890;2023-03-03T11:12:35;0.40;99.90
19359;DHT22;9815;52.334;20.890;2023-03-03T11:15:23;0.60;99.90
19359;DHT22;9815;52.334;20.890;2023-03-03T11:18:09;0.50;99.90
19359;DHT22;9815;52.334;20.890;2023-03-03T11:20:44;0.40;99.90
19359;DHT22;9815;52.334;20.890;2023-03-03T11:23:28;0.40;99.90
19359;DHT22;9815;52.334;20.890;2023-03-03T11:26:08;0.40;99.90
19359;DHT22;9815;52.334;20.890;2023-03-03T11:28:47;0.40;99.90
19359;DHT22;9815;52.334;20.890;2023-03-03T11:31:26;0.30;99.90
19359;DHT22;9815;52.334;20.890;2023-03-03T11:34:02;0.30;99.90
19359;DHT22;9815;52.334;20.890;2023-03-03T11:36:40;0.40;99.90
19359;DHT22;9815;52.334;20.890;2023-03-03T11:39:13;0.40;99.90
19359;DHT22;9815;52.334;20.890;2023-03-03T11:41:53;0.40;99.90
19359;DHT22;9815;52.334;20.890;2023-03-03T11:44:28;0.40;99.90
19359;DHT22;9815;52.334;20.890;2023-03-03T11:47:03;0.50;99.90
19359;DHT22;9815;52.334;20.890;2023-03-03T11:49:35;0.40;99.90
19359;DHT22;9815;52.334;20.890;2023-03-03T11:52:16;0.40;99.90
19359;DHT22;9815;52.334;20.890;2023-03-03T11:54:52;0.40;99.90
19359;DHT22;9815;52.334;20.890;2023-03-03T11:57:25;0.40;99.90
19359;DHT22;9815;52.334;20.890;2023-03-03T12:00:02;0.30;99.90
19359;DHT22;9815;52.334;20.890;2023-03-03T12:05:55;0.30;99.90
19359;DHT22;9815;52.334;20.890;2023-03-03T12:08:37;0.20;99.90
19359;DHT22;9815;52.334;20.890;2023-03-03T12:11:12;0.20;99.90
19359;DHT22;9815;52.334;20.890;2023-03-03T12:13:51;0.20;99.90
19359;DHT22;9815;52.334;20.890;2023-03-03T12:16:27;0.30;99.90
19359;DHT22;9815;52.334;20.890;2023-03-03T12:19:14;0.30;99.90
19359;DHT22;9815;52.334;20.890;2023-03-03T12:22:02;0.40;99.90
19359;DHT22;9815;52.334;20.890;2023-03-03T12:24:39;0.40;99.90
19359;DHT22;9815;52.334;20.890;2023-03-03T12:27:17;0.40;99.90
19359;DHT22;9815;52.334;20.890;2023-03-03T12:29:58;0.40;99.90
19359;DHT22;9815;52.334;20.890;2023-03-03T12:32:42;0.50;99.90
19359;DHT22;9815;52.334;20.890;2023-03-03T12:35:19;0.40;99.90
19359;DHT22;9815;52.334;20.890;2023-03-03T12:37:57;0.30;99.90
19359;DHT22;9815;52.334;20.890;2023-03-03T12:40:31;0.40;99.90
19359;DHT22;9815;52.334;20.890;2023-03-03T12:43:25;0.30;99.90
19359;DHT22;9815;52.334;20.890;2023-03-03T12:46:04;0.30;99.90
19359;DHT22;9815;52.334;20.890;2023-03-03T12:48:39;0.30;99.90
19359;DHT22;9815;52.334;20.890;2023-03-03T12:51:17;0.30;99.90
19359;DHT22;9815;52.334;20.890;2023-03-03T12:54:20;0.10;99.90
19359;DHT22;9815;52.334;20.890;2023-03-03T12:56:53;0.30;99.90
19359;DHT22;9815;52.334;20.890;2023-03-03T12:59:33;0.40;99.90
19359;DHT22;9815;52.334;20.890;2023-03-03T13:02:25;0.40;99.90
19359;DHT22;9815;52.334;20.890;2023-03-03T13:05:03;0.40;99.90
19359;DHT22;9815;52.334;20.890;2023-03-03T13:07:40;0.40;99.90
19359;DHT22;9815;52.334;20.890;2023-03-03T13:10:15;0.50;99.90
19359;DHT22;9815;52.334;20.890;2023-03-03T13:12:50;0.50;99.90
19359;DHT22;9815;52.334;20.890;2023-03-03T13:15:23;0.40;99.90
19359;DHT22;9815;52.334;20.890;2023-03-03T13:18:22;0.40;99.90
19359;DHT22;9815;52.334;20.890;2023-03-03T13:20:56;0.50;99.90
19359;DHT22;9815;52.334;20.890;2023-03-03T13:23:37;0.40;99.90
19359;DHT22;9815;52.334;20.890;2023-03-03T13:26:12;0.40;99.90
19359;DHT22;9815;52.334;20.890;2023-03-03T13:28:54;0.40;99.90
19359;DHT22;9815;52.334;20.890;2023-03-03T13:31:28;0.40;99.90
19359;DHT22;9815;52.334;20.890;2023-03-03T13:33:59;0.40;99.90
19359;DHT22;9815;52.334;20.890;2023-03-03T13:36:30;0.50;99.90
19359;DHT22;9815;52.334;20.890;2023-03-03T13:39:10;0.40;99.90
19359;DHT22;9815;52.334;20.890;2023-03-03T13:41:44;0.50;99.90
19359;DHT22;9815;52.334;20.890;2023-03-03T13:44:19;0.50;99.90
19359;DHT22;9815;52.334;20.890;2023-03-03T13:46:57;0.50;99.90
19359;DHT22;9815;52.334;20.890;2023-03-03T13:49:35;0.50;99.90
19359;DHT22;9815;52.334;20.890;2023-03-03T13:52:08;0.40;99.90
19359;DHT22;9815;52.334;20.890;2023-03-03T13:54:52;0.40;99.90
19359;DHT22;9815;52.334;20.890;2023-03-03T13:57:37;0.40;99.90
19359;DHT22;9815;52.334;20.890;2023-03-03T14:00:20;0.40;99.90
19359;DHT22;9815;52.334;20.890;2023-03-03T14:03:02;0.40;99.90
19359;DHT22;9815;52.334;20.890;2023-03-03T14:05:37;0.50;99.90
19359;DHT22;9815;52.334;20.890;2023-03-03T14:08:11;0.40;99.90
19359;DHT22;9815;52.334;20.890;2023-03-03T14:10:46;0.30;99.90
19359;DHT22;9815;52.334;20.890;2023-03-03T14:13:20;0.40;99.90
19359;DHT22;9815;52.334;20.890;2023-03-03T14:15:55;0.40;99.90
19359;DHT22;9815;52.334;20.890;2023-03-03T14:18:28;0.40;99.90
19359;DHT22;9815;52.334;20.890;2023-03-03T14:21:01;0.40;99.90
19359;DHT22;9815;52.334;20.890;2023-03-03T14:23:33;0.40;99.90
19359;DHT22;9815;52.334;20.890;2023-03-03T14:26:10;0.40;99.90
19359;DHT22;9815;52.334;20.890;2023-03-03T14:28:40;0.30;99.90
19359;DHT22;9815;52.334;20.890;2023-03-03T14:31:21;0.30;99.90
19359;DHT22;9815;52.334;20.890;2023-03-03T14:33:58;0.30;99.90
19359;DHT22;9815;52.334;20.890;2023-03-03T14:36:30;0.40;99.90
19359;DHT22;9815;52.334;20.890;2023-03-03T14:38:58;0.40;99.90
19359;DHT22;9815;52.334;20.890;2023-03-03T14:41:40;0.30;99.90
19359;DHT22;9815;52.334;20.890;2023-03-03T14:44:24;0.40;99.90
19359;DHT22;9815;52.334;20.890;2023-03-03T14:47:15;0.40;99.90
19359;DHT22;9815;52.334;20.890;2023-03-03T14:49:44;0.30;99.90
19359;DHT22;9815;52.334;20.890;2023-03-03T14:52:22;0.30;99.90
19359;DHT22;9815;52.334;20.890;2023-03-03T14:54:52;0.30;99.90
19359;DHT22;9815;52.334;20.890;2023-03-03T14:57:37;0.30;99.90
19359;DHT22;9815;52.334;20.890;2023-03-03T15:00:29;0.30;99.90
19359;DHT22;9815;52.334;20.890;2023-03-03T15:03:16;0.30;99.90
19359;DHT22;9815;52.334;20.890;2023-03-03T15:05:49;0.30;99.90
19359;DHT22;9815;52.334;20.890;2023-03-03T15:08:26;0.30;99.90
19359;DHT22;9815;52.334;20.890;2023-03-03T15:11:11;0.30;99.90
19359;DHT22;9815;52.334;20.890;2023-03-03T15:13:42;0.30;99.90
19359;DHT22;9815;52.334;20.890;2023-03-03T15:16:11;0.30;99.90
19359;DHT22;9815;52.334;20.890;2023-03-03T15:19:00;0.30;99.90
19359;DHT22;9815;52.334;20.890;2023-03-03T15:21:35;0.30;99.90
19359;DHT22;9815;52.334;20.890;2023-03-03T15:24:07;0.30;99.90
19359;DHT22;9815;52.334;20.890;2023-03-03T15:26:44;0.30;99.90
19359;DHT22;9815;52.334;20.890;2023-03-03T15:29:19;0.30;99.90
19359;DHT22;9815;52.334;20.890;2023-03-03T15:31:54;0.30;99.90
19359;DHT22;9815;52.334;20.890;2023-03-03T15:34:35;0.30;99.90
19359;DHT22;9815;52.334;20.890;2023-03-03T15:37:16;0.30;99.90
19359;DHT22;9815;52.334;20.890;2023-03-03T15:39:51;0.30;99.90
19359;DHT22;9815;52.334;20.890;2023-03-03T15:42:30;0.30;99.90
19359;DHT22;9815;52.334;20.890;2023-03-03T15:45:06;0.40;99.90
19359;DHT22;9815;52.334;20.890;2023-03-03T15:47:50;0.40;99.90
19359;DHT22;9815;52.334;20.890;2023-03-03T15:50:40;0.40;99.90
19359;DHT22;9815;52.334;20.890;2023-03-03T15:53:20;0.40;99.90
19359;DHT22;9815;52.334;20.890;2023-03-03T15:56:00;0.40;99.90
19359;DHT22;9815;52.334;20.890;2023-03-03T15:59:08;0.40;99.90
19359;DHT22;9815;52.334;20.890;2023-03-03T16:01:49;0.40;99.90
19359;DHT22;9815;52.334;20.890;2023-03-03T16:04:22;0.30;99.90
19359;DHT22;9815;52.334;20.890;2023-03-03T16:06:57;0.30;99.90
19359;DHT22;9815;52.334;20.890;2023-03-03T16:09:35;0.30;99.90
19359;DHT22;9815;52.334;20.890;2023-03-03T16:12:14;0.30;99.90
19359;DHT22;9815;52.334;20.890;2023-03-03T16:14:53;0.20;99.90
19359;DHT22;9815;52.334;20.890;2023-03-03T16:17:33;0.30;99.90
19359;DHT22;9815;52.334;20.890;2023-03-03T16:20:12;0.30;99.90
19359;DHT22;9815;52.334;20.890;2023-03-03T16:22:58;0.30;99.90
19359;DHT22;9815;52.334;20.890;2023-03-03T16:25:44;0.20;99.90
19359;DHT22;9815;52.334;20.890;2023-03-03T16:28:17;0.20;99.90
19359;DHT22;9815;52.334;20.890;2023-03-03T16:30:51;0.20;99.90
19359;DHT22;9815;52.334;20.890;2023-03-03T16:33:26;0.10;99.90
19359;DHT22;9815;52.334;20.890;2023-03-03T16:36:02;0.10;99.90